Time;durP1;ratioP1;P1;durP2;ratioP2;P2;SDS_P1;SDS_P2;PMS_P1;PMS_P2;Temp;Humidity;BMP_temperature;BMP_pressure;BME280_temperature;BME280_humidity;BME280_pressure;Samples;Min_cycle;Max_cycle;Signal;HPM_P1;HPM_P2
2022/01/19 00:01:00;;;;;;;31.77;17.40;;;;;;;;;;2059880;28;20166;-63
2022/01/19 00:02:00;;;;;;;26.30;17.17;;;;;;;;;;2062638;28;20177;-63
2022/01/19 00:03:00;;;;;;;26.20;16.30;;;;;;;;;;2067819;28;20728;-63
2022/01/19 00:04:00;;;;;;;29.37;16.87;;;;;;;;;;2066802;28;20890;-62
2022/01/19 00:05:01;;;;;;;23.90;17.30;;;;;;;;;;2066447;28;20204;-62
2022/01/19 00:06:01;;;;;;;29.60;17.93;;;;;;;;;;2060095;28;20237;-62
2022/01/19 00:07:01;;;;;;;30.63;17.63;;;;;;;;;;2062631;28;20216;-62
2022/01/19 00:08:02;;;;;;;29.57;17.03;;;;;;;;;;2066252;28;20213;-63
2022/01/19 00:09:02;;;;;;;29.43;17.47;;;;;;;;;;2066592;28;20216;-62
2022/01/19 00:10:06;;;;;;;28.10;17.47;;;;;;;;;;2064880;28;20185;-64
2022/01/19 00:11:06;;;;;;;29.77;16.60;;;;;;;;;;2065656;28;20674;-62
2022/01/19 00:12:06;;;;;;;31.67;18.87;;;;;;;;;;2065544;28;20177;-63
2022/01/19 00:13:07;;;;;;;33.23;17.63;;;;;;;;;;2063083;28;20255;-63
2022/01/19 00:14:07;;;;;;;27.63;17.13;;;;;;;;;;2065551;28;20193;-62
2022/01/19 00:15:08;;;;;;;34.93;18.10;;;;;;;;;;2065696;28;20196;-62
2022/01/19 00:16:08;;;;;;;26.13;17.63;;;;;;;;;;2062096;28;20173;-63
2022/01/19 00:17:08;;;;;;;31.23;18.87;;;;;;;;;;2064949;28;20276;-61
2022/01/19 00:18:09;;;;;;;30.73;19.60;;;;;;;;;;2064752;28;20231;-63
2022/01/19 00:19:09;;;;;;;35.63;19.70;;;;;;;;;;2066778;28;20174;-63
2022/01/19 00:20:09;;;;;;;35.23;20.53;;;;;;;;;;2066359;28;20216;-63
2022/01/19 00:21:11;;;;;;;34.83;20.40;;;;;;;;;;2066200;28;20216;-64
2022/01/19 00:22:11;;;;;;;37.43;19.77;;;;;;;;;;2066304;28;20193;-62
2022/01/19 00:23:12;;;;;;;38.47;18.67;;;;;;;;;;2065368;28;20188;-62
2022/01/19 00:24:13;;;;;;;35.67;19.60;;;;;;;;;;2065662;28;20285;-62
2022/01/19 00:25:13;;;;;;;33.00;19.17;;;;;;;;;;2064582;28;20215;-62
2022/01/19 00:26:13;;;;;;;33.67;20.13;;;;;;;;;;2063469;28;20232;-61
2022/01/19 00:27:13;;;;;;;35.80;19.47;;;;;;;;;;2063312;28;20178;-64
2022/01/19 00:28:14;;;;;;;32.50;18.43;;;;;;;;;;2066249;28;20269;-62
2022/01/19 00:29:14;;;;;;;30.57;18.60;;;;;;;;;;2066526;28;20260;-63
2022/01/19 00:30:15;;;;;;;35.67;20.07;;;;;;;;;;2066143;28;20257;-62
2022/01/19 00:31:15;;;;;;;36.60;19.80;;;;;;;;;;2065851;28;20247;-63
2022/01/19 00:32:16;;;;;;;38.10;19.03;;;;;;;;;;2062694;28;20202;-62
2022/01/19 00:33:19;;;;;;;34.63;20.43;;;;;;;;;;2061062;28;20624;-62
2022/01/19 00:34:19;;;;;;;40.23;20.67;;;;;;;;;;2057867;28;20217;-62
2022/01/19 00:35:20;;;;;;;31.77;18.60;;;;;;;;;;2062367;28;20182;-63
2022/01/19 00:36:20;;;;;;;34.53;17.20;;;;;;;;;;2066807;28;20252;-61
2022/01/19 00:37:20;;;;;;;32.17;19.37;;;;;;;;;;2065521;28;20273;-63
2022/01/19 00:38:21;;;;;;;31.70;18.10;;;;;;;;;;2062783;28;20174;-61
2022/01/19 00:39:24;;;;;;;32.57;19.83;;;;;;;;;;2067206;28;20201;-61
2022/01/19 00:40:24;;;;;;;30.90;18.23;;;;;;;;;;2068852;28;20212;-62
2022/01/19 00:41:24;;;;;;;34.70;19.20;;;;;;;;;;2061043;28;20174;-64
2022/01/19 00:42:25;;;;;;;31.03;19.47;;;;;;;;;;2062125;28;20186;-62
2022/01/19 00:43:25;;;;;;;37.00;19.27;;;;;;;;;;2060385;28;20182;-63
2022/01/19 00:44:25;;;;;;;36.67;20.00;;;;;;;;;;2060281;28;20236;-62
2022/01/19 00:45:26;;;;;;;37.03;19.90;;;;;;;;;;2059912;28;20182;-64
2022/01/19 00:46:26;;;;;;;32.43;19.77;;;;;;;;;;2060137;28;20178;-61
2022/01/19 00:47:26;;;;;;;39.63;20.80;;;;;;;;;;2068005;28;20173;-63
2022/01/19 00:48:27;;;;;;;37.50;20.70;;;;;;;;;;2057782;28;20669;-63
2022/01/19 00:49:27;;;;;;;38.03;19.17;;;;;;;;;;2066498;28;20170;-62
2022/01/19 00:50:29;;;;;;;34.20;20.43;;;;;;;;;;2067333;28;20198;-62
2022/01/19 00:51:29;;;;;;;37.03;18.83;;;;;;;;;;2067963;28;20186;-63
2022/01/19 00:52:29;;;;;;;34.77;20.17;;;;;;;;;;2067916;28;20177;-63
2022/01/19 00:53:29;;;;;;;42.33;21.83;;;;;;;;;;2065476;28;20264;-62
2022/01/19 00:54:30;;;;;;;36.87;20.33;;;;;;;;;;2066898;28;20685;-63
2022/01/19 00:55:30;;;;;;;36.47;21.47;;;;;;;;;;2066982;28;20173;-61
2022/01/19 00:56:30;;;;;;;32.87;20.77;;;;;;;;;;2066384;28;20292;-65
2022/01/19 00:57:30;;;;;;;38.57;22.67;;;;;;;;;;2066252;28;20185;-62
2022/01/19 00:58:31;;;;;;;46.93;23.57;;;;;;;;;;2066541;28;20189;-63
2022/01/19 00:59:31;;;;;;;41.40;22.30;;;;;;;;;;2066335;28;20579;-63
2022/01/19 01:00:32;;;;;;;52.53;24.77;;;;;;;;;;2058916;28;20185;-64
2022/01/19 01:01:33;;;;;;;39.80;21.63;;;;;;;;;;2066292;28;20170;-63
2022/01/19 01:02:33;;;;;;;39.60;24.37;;;;;;;;;;2065942;28;20181;-63
2022/01/19 01:03:33;;;;;;;45.23;23.73;;;;;;;;;;2066579;28;20592;-63
2022/01/19 01:04:34;;;;;;;39.97;22.60;;;;;;;;;;2064843;28;20216;-63
2022/01/19 01:05:34;;;;;;;43.53;25.80;;;;;;;;;;2064752;28;20188;-62
2022/01/19 01:06:34;;;;;;;46.40;23.40;;;;;;;;;;2066176;28;20178;-62
2022/01/19 01:07:38;;;;;;;46.87;23.53;;;;;;;;;;2065855;28;20262;-64
2022/01/19 01:08:38;;;;;;;48.03;24.00;;;;;;;;;;2065624;28;20265;-62
2022/01/19 01:09:39;;;;;;;43.90;23.63;;;;;;;;;;2056698;28;20174;-61
2022/01/19 01:10:43;;;;;;;38.80;22.80;;;;;;;;;;2060247;28;20178;-62
2022/01/19 01:11:56;;;;;;;38.13;22.97;;;;;;;;;;2064977;28;20178;-62
2022/01/19 01:13:16;;;;;;;41.47;22.57;;;;;;;;;;2064479;28;20199;-61
2022/01/19 01:15:47;;;;;;;45.07;22.60;;;;;;;;;;2063067;28;20229;-63
2022/01/19 01:17:12;;;;;;;35.40;21.17;;;;;;;;;;2059105;28;20191;-63
2022/01/19 01:18:19;;;;;;;43.83;22.70;;;;;;;;;;2064763;28;20181;-63
2022/01/19 01:19:20;;;;;;;39.47;22.10;;;;;;;;;;2057727;28;20619;-63
2022/01/19 01:20:20;;;;;;;36.30;21.63;;;;;;;;;;2063138;28;20247;-63
2022/01/19 01:21:21;;;;;;;43.03;23.73;;;;;;;;;;2065942;28;20205;-62
2022/01/19 01:22:21;;;;;;;44.83;23.97;;;;;;;;;;2054068;28;20189;-63
2022/01/19 01:23:25;;;;;;;50.63;25.50;;;;;;;;;;2049685;28;20668;-62
2022/01/19 01:24:26;;;;;;;43.80;24.60;;;;;;;;;;2040865;29;20708;-61
2022/01/19 01:25:27;;;;;;;44.83;25.07;;;;;;;;;;2055216;28;20194;-63
2022/01/19 01:26:28;;;;;;;47.70;24.73;;;;;;;;;;2065110;28;20181;-61
2022/01/19 01:27:28;;;;;;;41.80;23.73;;;;;;;;;;2065330;28;20185;-63
2022/01/19 01:28:28;;;;;;;43.60;23.07;;;;;;;;;;2064571;28;20209;-62
2022/01/19 01:29:28;;;;;;;41.47;23.83;;;;;;;;;;2056294;28;20182;-62
2022/01/19 01:30:29;;;;;;;40.97;23.17;;;;;;;;;;2058580;28;20260;-61
2022/01/19 01:31:29;;;;;;;38.00;22.60;;;;;;;;;;2065295;28;20166;-63
2022/01/19 01:32:29;;;;;;;40.77;21.97;;;;;;;;;;2064925;28;20209;-62
2022/01/19 01:33:30;;;;;;;42.80;22.10;;;;;;;;;;2050023;28;20185;-63
2022/01/19 01:34:30;;;;;;;40.37;21.80;;;;;;;;;;2057140;28;20214;-61
2022/01/19 01:35:30;;;;;;;40.53;21.90;;;;;;;;;;2065149;28;20212;-61
2022/01/19 01:36:31;;;;;;;40.07;22.13;;;;;;;;;;2054254;28;20178;-62
2022/01/19 01:37:31;;;;;;;39.23;22.77;;;;;;;;;;2057404;28;20182;-62
2022/01/19 01:38:33;;;;;;;41.23;21.70;;;;;;;;;;2057352;28;20263;-62
2022/01/19 01:39:34;;;;;;;41.13;22.03;;;;;;;;;;2059018;28;20201;-64
2022/01/19 01:40:35;;;;;;;40.17;22.53;;;;;;;;;;2058810;28;20174;-64
2022/01/19 01:41:35;;;;;;;40.57;22.30;;;;;;;;;;2066502;28;20617;-62
2022/01/19 01:42:44;;;;;;;38.23;23.43;;;;;;;;;;2066558;28;20197;-61
2022/01/19 01:43:45;;;;;;;39.77;20.83;;;;;;;;;;2058638;28;20186;-63
2022/01/19 01:44:49;;;;;;;36.77;21.33;;;;;;;;;;2065901;28;20212;-62
2022/01/19 01:45:54;;;;;;;37.40;20.10;;;;;;;;;;2067354;28;20179;-62
2022/01/19 01:46:59;;;;;;;31.57;20.87;;;;;;;;;;2067500;28;20216;-63
2022/01/19 01:48:11;;;;;;;37.77;21.00;;;;;;;;;;2067557;28;20193;-62
2022/01/19 01:49:19;;;;;;;35.90;20.20;;;;;;;;;;2061028;28;20184;-63
2022/01/19 01:53:26;;;;;;;39.50;21.03;;;;;;;;;;2066749;28;20177;-62
2022/01/19 01:54:26;;;;;;;45.13;22.47;;;;;;;;;;2066335;28;20232;-61
2022/01/19 01:55:26;;;;;;;48.93;23.47;;;;;;;;;;2063822;28;20705;-62
2022/01/19 01:56:28;;;;;;;48.50;23.50;;;;;;;;;;2064424;28;20196;-62
2022/01/19 01:57:34;;;;;;;44.90;23.27;;;;;;;;;;2064422;28;20177;-61
2022/01/19 01:58:39;;;;;;;38.17;22.17;;;;;;;;;;2065230;28;20173;-62
2022/01/19 02:00:04;;;;;;;36.53;20.67;;;;;;;;;;2037615;29;20219;-61
2022/01/19 02:01:19;;;;;;;39.63;21.00;;;;;;;;;;2063037;28;20189;-63
2022/01/19 02:02:19;;;;;;;40.93;21.53;;;;;;;;;;2064080;28;20698;-61
2022/01/19 02:03:20;;;;;;;41.93;23.20;;;;;;;;;;2064807;28;20174;-61
2022/01/19 02:04:23;;;;;;;31.73;21.90;;;;;;;;;;2062231;28;20243;-61
2022/01/19 02:05:25;;;;;;;42.83;22.10;;;;;;;;;;2056708;28;20179;-61
2022/01/19 02:06:33;;;;;;;39.83;22.67;;;;;;;;;;2056880;28;20174;-61
2022/01/19 02:08:05;;;;;;;41.40;23.23;;;;;;;;;;2058898;28;20273;-63
2022/01/19 02:09:11;;;;;;;39.10;23.07;;;;;;;;;;2059140;28;20174;-61
2022/01/19 02:10:30;;;;;;;42.70;23.13;;;;;;;;;;2060293;28;20681;-63
2022/01/19 02:15:48;;;;;;;40.80;23.43;;;;;;;;;;2065743;28;20268;-63
2022/01/19 02:15:59;;;;;;;51.67;26.33;;;;;;;;;;2064335;28;20228;-62
2022/01/19 02:22:15;;;;;;;54.00;27.53;;;;;;;;;;2064966;28;20165;-62
2022/01/19 02:23:21;;;;;;;49.23;27.23;;;;;;;;;;2064581;28;20241;-61
2022/01/19 02:24:21;;;;;;;48.33;27.33;;;;;;;;;;2056060;28;20274;-64
2022/01/19 02:25:27;;;;;;;59.47;28.13;;;;;;;;;;2049041;28;20190;-62
2022/01/19 02:26:46;;;;;;;50.00;27.80;;;;;;;;;;2050592;28;20267;-62
2022/01/19 02:29:18;;;;;;;53.37;29.53;;;;;;;;;;2056669;28;20198;-61
2022/01/19 02:30:57;;;;;;;48.60;27.33;;;;;;;;;;2061912;28;20289;-62
2022/01/19 02:40:58;;;;;;;58.60;30.57;;;;;;;;;;2059803;28;20169;-63
2022/01/19 02:41:59;;;;;;;62.77;31.23;;;;;;;;;;2066788;28;20203;-63
2022/01/19 02:44:00;;;;;;;65.70;33.23;;;;;;;;;;2064367;28;20208;-62
2022/01/19 02:49:38;;;;;;;64.37;29.87;;;;;;;;;;2059532;28;20604;-62
2022/01/19 02:50:39;;;;;;;61.00;30.27;;;;;;;;;;2058362;28;20273;-63
2022/01/19 02:51:40;;;;;;;61.03;28.60;;;;;;;;;;2059751;28;20269;-63
2022/01/19 02:52:40;;;;;;;64.77;30.17;;;;;;;;;;2066405;28;20783;-63
2022/01/19 02:53:40;;;;;;;55.17;28.73;;;;;;;;;;2065042;28;20181;-63
2022/01/19 02:54:41;;;;;;;58.00;28.57;;;;;;;;;;2065922;28;20583;-63
2022/01/19 02:55:41;;;;;;;63.07;29.17;;;;;;;;;;2066163;28;20241;-63
2022/01/19 02:56:45;;;;;;;61.17;29.47;;;;;;;;;;2072918;28;20188;-63
2022/01/19 02:57:46;;;;;;;53.47;28.60;;;;;;;;;;2073161;28;20207;-63
2022/01/19 02:58:52;;;;;;;51.10;27.63;;;;;;;;;;2060378;28;20202;-62
2022/01/19 03:08:53;;;;;;;49.53;28.43;;;;;;;;;;2065499;28;20158;-63
2022/01/19 03:09:54;;;;;;;52.80;27.57;;;;;;;;;;2064410;28;20173;-63
2022/01/19 03:10:54;;;;;;;57.97;29.23;;;;;;;;;;2058131;28;20209;-62
2022/01/19 03:11:55;;;;;;;57.63;28.63;;;;;;;;;;2066547;28;20216;-61
2022/01/19 03:12:55;;;;;;;56.20;28.63;;;;;;;;;;2067048;28;20312;-62
2022/01/19 03:13:55;;;;;;;48.20;26.63;;;;;;;;;;2066947;28;20292;-62
2022/01/19 03:14:56;;;;;;;52.00;27.73;;;;;;;;;;2066756;28;20177;-63
2022/01/19 03:15:57;;;;;;;50.50;27.27;;;;;;;;;;2066869;28;20201;-56
2022/01/19 03:16:58;;;;;;;47.73;26.40;;;;;;;;;;2050207;29;20174;-63
2022/01/19 03:18:00;;;;;;;52.27;27.03;;;;;;;;;;2049838;29;20179;-63
2022/01/19 03:19:00;;;;;;;47.47;26.30;;;;;;;;;;2066854;28;20209;-63
2022/01/19 03:20:02;;;;;;;54.47;27.67;;;;;;;;;;2065410;28;20267;-62
2022/01/19 03:21:02;;;;;;;48.37;26.73;;;;;;;;;;2066202;28;20181;-63
2022/01/19 03:22:03;;;;;;;46.43;26.03;;;;;;;;;;2066674;28;20265;-63
2022/01/19 03:23:11;;;;;;;51.97;26.90;;;;;;;;;;2065983;28;20212;-62
2022/01/19 03:24:12;;;;;;;46.27;24.70;;;;;;;;;;2063370;28;20664;-62
2022/01/19 03:25:13;;;;;;;47.93;28.00;;;;;;;;;;2059017;28;20218;-64
2022/01/19 03:26:14;;;;;;;47.60;27.20;;;;;;;;;;2059002;28;20174;-61
2022/01/19 03:27:33;;;;;;;47.77;26.47;;;;;;;;;;2067019;28;20197;-63
2022/01/19 03:28:34;;;;;;;45.30;27.03;;;;;;;;;;2066945;28;20193;-63
2022/01/19 03:29:35;;;;;;;47.70;25.30;;;;;;;;;;2052729;28;20719;-64
2022/01/19 03:30:35;;;;;;;48.53;26.63;;;;;;;;;;2066939;28;20194;-62
2022/01/19 03:31:36;;;;;;;56.40;27.33;;;;;;;;;;2069102;28;20172;-61
2022/01/19 03:32:36;;;;;;;48.53;27.47;;;;;;;;;;2067955;28;20185;-63
2022/01/19 03:33:36;;;;;;;46.30;26.63;;;;;;;;;;2067135;28;20189;-65
2022/01/19 03:34:37;;;;;;;50.37;27.00;;;;;;;;;;2061096;28;20210;-62
2022/01/19 03:35:38;;;;;;;49.77;27.00;;;;;;;;;;2067371;28;20208;-62
2022/01/19 03:36:39;;;;;;;51.60;27.73;;;;;;;;;;2058525;28;20170;-66
2022/01/19 03:37:40;;;;;;;49.83;25.97;;;;;;;;;;2066727;28;20206;-62
2022/01/19 03:38:40;;;;;;;51.93;26.83;;;;;;;;;;2066394;28;20157;-59
2022/01/19 03:39:41;;;;;;;54.47;27.20;;;;;;;;;;2060241;28;20170;-60
2022/01/19 03:40:41;;;;;;;45.77;26.53;;;;;;;;;;2067232;28;20212;-60
2022/01/19 03:41:42;;;;;;;45.37;26.03;;;;;;;;;;2065912;28;20173;-64
2022/01/19 03:42:42;;;;;;;46.93;26.53;;;;;;;;;;2066265;28;20177;-61
2022/01/19 03:43:42;;;;;;;45.57;26.13;;;;;;;;;;2071079;28;20629;-61
2022/01/19 03:44:47;;;;;;;46.90;25.97;;;;;;;;;;2061140;28;20178;-62
2022/01/19 03:45:57;;;;;;;46.87;25.53;;;;;;;;;;2066880;28;20178;-60
2022/01/19 03:47:00;;;;;;;48.20;25.60;;;;;;;;;;2058241;28;20173;-60
2022/01/19 03:49:40;;;;;;;42.63;25.17;;;;;;;;;;2050742;29;20182;-62
2022/01/19 03:50:40;;;;;;;47.00;26.90;;;;;;;;;;2041346;29;20203;-63
2022/01/19 03:51:40;;;;;;;41.40;25.17;;;;;;;;;;2033162;29;20184;-64
2022/01/19 03:52:40;;;;;;;44.80;26.03;;;;;;;;;;2041569;29;20179;-64
2022/01/19 03:53:41;;;;;;;45.07;25.87;;;;;;;;;;2042269;29;20576;-59
2022/01/19 03:54:42;;;;;;;49.23;27.23;;;;;;;;;;2033558;29;20239;-63
2022/01/19 03:55:43;;;;;;;53.83;29.07;;;;;;;;;;2055546;28;20186;-64
2022/01/19 03:56:43;;;;;;;48.20;27.87;;;;;;;;;;2055926;28;20171;-63
2022/01/19 03:57:43;;;;;;;44.10;27.40;;;;;;;;;;2058513;28;20610;-59
2022/01/19 03:58:44;;;;;;;53.50;27.87;;;;;;;;;;2058077;28;20170;-63
2022/01/19 03:59:44;;;;;;;50.43;28.57;;;;;;;;;;2065263;28;20550;-62
2022/01/19 04:00:45;;;;;;;53.07;30.20;;;;;;;;;;2060241;28;20276;-61
2022/01/19 04:01:46;;;;;;;52.83;28.60;;;;;;;;;;2063902;28;20639;-61
2022/01/19 04:02:48;;;;;;;56.97;29.73;;;;;;;;;;2065326;28;20182;-59
2022/01/19 04:04:26;;;;;;;57.87;31.13;;;;;;;;;;2064837;28;20178;-61
2022/01/19 04:05:22;;;;;;;46.13;29.20;;;;;;;;;;2054990;28;20181;-60
2022/01/19 04:06:26;;;;;;;51.97;28.47;;;;;;;;;;2057251;28;20278;-60
2022/01/19 04:07:27;;;;;;;51.10;29.53;;;;;;;;;;2049882;28;20206;-58
2022/01/19 04:08:27;;;;;;;53.30;28.97;;;;;;;;;;2048435;29;20171;-60
2022/01/19 04:09:28;;;;;;;51.97;27.87;;;;;;;;;;2066085;28;20270;-61
2022/01/19 04:10:28;;;;;;;47.83;27.17;;;;;;;;;;2064584;28;20188;-58
2022/01/19 04:11:29;;;;;;;40.13;26.27;;;;;;;;;;2064380;28;20624;-60
2022/01/19 04:15:02;;;;;;;50.90;26.37;;;;;;;;;;2057092;28;20277;-60
2022/01/19 04:16:02;;;;;;;42.50;24.53;;;;;;;;;;2056607;28;20178;-53
2022/01/19 04:17:05;;;;;;;48.17;26.17;;;;;;;;;;2058528;28;20178;-56
2022/01/19 04:18:05;;;;;;;45.97;26.07;;;;;;;;;;2060053;28;20293;-57
2022/01/19 04:19:28;;;;;;;41.53;24.40;;;;;;;;;;2058465;28;20180;-55
2022/01/19 04:20:40;;;;;;;38.63;24.23;;;;;;;;;;2062314;28;20779;-57
2022/01/19 04:21:41;;;;;;;48.17;26.87;;;;;;;;;;2061810;28;20192;-55
2022/01/19 04:22:41;;;;;;;48.03;25.70;;;;;;;;;;2058340;28;20189;-55
2022/01/19 04:23:42;;;;;;;48.23;26.13;;;;;;;;;;2065727;28;20178;-56
2022/01/19 04:24:42;;;;;;;41.43;24.20;;;;;;;;;;2065378;28;20196;-55
2022/01/19 04:25:42;;;;;;;46.03;25.27;;;;;;;;;;2053604;28;20179;-61
2022/01/19 04:26:44;;;;;;;45.70;26.03;;;;;;;;;;2065384;28;20161;-62
2022/01/19 04:27:46;;;;;;;49.17;28.00;;;;;;;;;;2057186;28;20611;-61
2022/01/19 04:28:47;;;;;;;51.80;27.57;;;;;;;;;;2065609;28;20178;-62
2022/01/19 04:29:59;;;;;;;45.57;26.03;;;;;;;;;;2064143;28;20567;-63
2022/01/19 04:31:00;;;;;;;47.20;26.77;;;;;;;;;;2058582;28;20174;-61
2022/01/19 04:32:09;;;;;;;42.93;23.90;;;;;;;;;;2057054;28;20179;-65
2022/01/19 04:33:13;;;;;;;41.50;24.37;;;;;;;;;;2056315;28;20167;-63
2022/01/19 04:34:17;;;;;;;49.47;26.37;;;;;;;;;;2054097;28;20202;-65
2022/01/19 04:35:21;;;;;;;44.40;25.00;;;;;;;;;;2056490;28;20269;-64
2022/01/19 04:44:05;;;;;;;49.77;25.77;;;;;;;;;;2035155;29;20235;-61
2022/01/19 04:48:12;;;;;;;49.63;24.67;;;;;;;;;;2060222;28;20277;-64
2022/01/19 04:54:53;;;;;;;48.37;25.00;;;;;;;;;;2060524;28;20186;-63
2022/01/19 05:06:20;;;;;;;49.90;24.83;;;;;;;;;;2054570;28;20556;-61
2022/01/19 05:07:34;;;;;;;44.13;26.23;;;;;;;;;;2056752;28;20174;-62
2022/01/19 05:09:21;;;;;;;54.37;26.93;;;;;;;;;;2059057;28;20162;-64
2022/01/19 05:13:52;;;;;;;50.10;23.97;;;;;;;;;;2061602;28;20164;-60
2022/01/19 05:14:54;;;;;;;51.17;26.13;;;;;;;;;;2064257;28;20185;-58
2022/01/19 05:15:54;;;;;;;48.77;25.33;;;;;;;;;;2052772;28;20178;-61
2022/01/19 05:16:56;;;;;;;50.20;25.90;;;;;;;;;;2056292;28;20265;-59
2022/01/19 05:17:57;;;;;;;53.60;27.67;;;;;;;;;;2052987;28;20442;-61
2022/01/19 05:18:57;;;;;;;51.97;28.07;;;;;;;;;;2051032;28;20179;-59
2022/01/19 05:19:57;;;;;;;55.03;26.23;;;;;;;;;;2061327;28;20170;-59
2022/01/19 05:20:58;;;;;;;54.60;26.43;;;;;;;;;;2064188;28;20166;-61
2022/01/19 05:22:19;;;;;;;47.27;25.03;;;;;;;;;;2063270;28;20658;-60
2022/01/19 05:23:27;;;;;;;45.17;25.57;;;;;;;;;;2063110;28;20154;-64
2022/01/19 05:24:28;;;;;;;52.43;28.07;;;;;;;;;;2056551;28;20257;-62
2022/01/19 05:25:44;;;;;;;55.30;27.60;;;;;;;;;;2054389;28;20175;-60
2022/01/19 05:26:52;;;;;;;41.33;25.17;;;;;;;;;;2057366;28;20190;-63
2022/01/19 05:28:00;;;;;;;46.77;25.27;;;;;;;;;;2057759;28;20179;-61
2022/01/19 05:29:01;;;;;;;55.17;29.00;;;;;;;;;;2064257;28;20189;-60
2022/01/19 05:30:01;;;;;;;51.03;27.80;;;;;;;;;;2064043;28;20217;-60
2022/01/19 05:31:02;;;;;;;57.37;28.03;;;;;;;;;;2056717;28;20237;-47
2022/01/19 05:32:02;;;;;;;51.20;28.23;;;;;;;;;;2054647;28;20178;-49
2022/01/19 05:33:03;;;;;;;61.77;28.37;;;;;;;;;;2060509;28;20190;-47
2022/01/19 05:34:04;;;;;;;62.33;27.20;;;;;;;;;;2063937;28;20227;-46
2022/01/19 05:35:13;;;;;;;48.60;26.43;;;;;;;;;;2063237;28;20208;-49
2022/01/19 05:36:28;;;;;;;48.30;25.33;;;;;;;;;;2058372;28;20159;-52
2022/01/19 05:37:44;;;;;;;54.90;25.40;;;;;;;;;;2056364;28;20601;-46
2022/01/19 05:38:57;;;;;;;49.60;24.60;;;;;;;;;;2057614;28;20532;-47
2022/01/19 05:40:17;;;;;;;40.53;24.60;;;;;;;;;;2061933;28;20427;-46
2022/01/19 05:41:21;;;;;;;45.53;26.47;;;;;;;;;;2053464;28;20734;-51
2022/01/19 05:42:22;;;;;;;57.90;26.47;;;;;;;;;;2048608;28;20190;-63
2022/01/19 05:43:23;;;;;;;67.40;26.53;;;;;;;;;;2056876;28;20174;-61
2022/01/19 05:44:23;;;;;;;53.43;27.40;;;;;;;;;;2055163;28;20182;-62
2022/01/19 05:45:24;;;;;;;48.20;25.50;;;;;;;;;;2058515;28;20200;-63
2022/01/19 05:46:26;;;;;;;46.67;26.13;;;;;;;;;;2055206;28;20170;-63
2022/01/19 05:47:26;;;;;;;49.93;26.60;;;;;;;;;;2056601;28;20210;-62
2022/01/19 05:48:27;;;;;;;52.43;29.17;;;;;;;;;;2057494;28;20186;-61
2022/01/19 05:49:29;;;;;;;44.23;26.30;;;;;;;;;;2053955;28;20193;-59
2022/01/19 05:50:29;;;;;;;48.87;25.73;;;;;;;;;;2055475;28;20191;-58
2022/01/19 05:51:35;;;;;;;48.93;24.53;;;;;;;;;;2055296;28;20233;-58
2022/01/19 05:52:35;;;;;;;49.10;25.17;;;;;;;;;;2061692;28;20629;-61
2022/01/19 05:53:35;;;;;;;44.27;24.93;;;;;;;;;;2061201;28;20187;-63
2022/01/19 05:54:39;;;;;;;46.37;24.20;;;;;;;;;;2054548;28;20628;-61
2022/01/19 05:55:40;;;;;;;41.53;23.97;;;;;;;;;;2061856;28;20451;-64
2022/01/19 05:56:40;;;;;;;42.07;23.03;;;;;;;;;;2063017;28;20169;-59
2022/01/19 05:57:52;;;;;;;44.67;23.37;;;;;;;;;;2054429;28;20195;-58
2022/01/19 05:58:55;;;;;;;40.90;23.40;;;;;;;;;;2053251;28;20193;-62
2022/01/19 05:59:55;;;;;;;39.63;22.47;;;;;;;;;;2052208;28;20221;-58
2022/01/19 06:00:56;;;;;;;37.70;22.97;;;;;;;;;;2055765;28;20349;-57
2022/01/19 06:01:56;;;;;;;45.40;23.03;;;;;;;;;;2061109;28;20236;-60
2022/01/19 06:02:56;;;;;;;42.10;23.27;;;;;;;;;;2056445;28;20261;-60
2022/01/19 06:04:26;;;;;;;40.30;22.60;;;;;;;;;;2063363;28;20193;-58
2022/01/19 06:05:45;;;;;;;49.20;23.17;;;;;;;;;;2061801;28;20816;-62
2022/01/19 06:07:03;;;;;;;37.30;22.30;;;;;;;;;;2054803;28;20181;-59
2022/01/19 06:10:45;;;;;;;44.93;23.33;;;;;;;;;;2055951;28;20229;-63
2022/01/19 06:11:46;;;;;;;50.83;27.07;;;;;;;;;;2055297;28;20170;-64
2022/01/19 06:12:46;;;;;;;49.63;26.20;;;;;;;;;;2056500;28;20197;-63
2022/01/19 06:13:46;;;;;;;37.83;22.40;;;;;;;;;;2060865;28;20182;-63
2022/01/19 06:14:47;;;;;;;37.37;24.13;;;;;;;;;;2052635;28;20195;-63
2022/01/19 06:15:48;;;;;;;40.43;23.77;;;;;;;;;;2055746;28;20174;-64
2022/01/19 06:16:48;;;;;;;42.50;24.57;;;;;;;;;;2053022;28;20183;-61
2022/01/19 06:17:49;;;;;;;43.10;25.37;;;;;;;;;;2054581;28;20173;-61
2022/01/19 06:18:49;;;;;;;37.77;24.83;;;;;;;;;;2053611;28;20554;-56
2022/01/19 06:19:51;;;;;;;38.20;24.57;;;;;;;;;;2063422;28;20672;-62
2022/01/19 06:20:52;;;;;;;40.57;25.07;;;;;;;;;;2055057;28;20327;-60
2022/01/19 06:21:58;;;;;;;41.97;25.37;;;;;;;;;;2048173;28;20194;-64
2022/01/19 06:22:59;;;;;;;39.77;25.67;;;;;;;;;;2053660;28;20515;-60
2022/01/19 06:24:00;;;;;;;42.67;26.53;;;;;;;;;;2053500;28;20182;-67
2022/01/19 06:25:00;;;;;;;42.40;26.23;;;;;;;;;;2051978;28;20322;-63
2022/01/19 06:26:01;;;;;;;45.13;27.40;;;;;;;;;;2052529;28;20274;-64
2022/01/19 06:27:01;;;;;;;40.93;27.10;;;;;;;;;;2051600;28;20177;-57
2022/01/19 06:28:02;;;;;;;47.10;27.23;;;;;;;;;;2049984;28;20602;-61
2022/01/19 06:29:03;;;;;;;47.17;28.77;;;;;;;;;;2059210;28;20248;-58
2022/01/19 06:30:03;;;;;;;44.73;28.00;;;;;;;;;;2050639;28;20659;-61
2022/01/19 06:31:06;;;;;;;44.53;27.53;;;;;;;;;;2050613;28;20190;-61
2022/01/19 06:32:06;;;;;;;42.37;26.53;;;;;;;;;;2053674;28;20178;-59
2022/01/19 06:33:07;;;;;;;47.07;26.43;;;;;;;;;;2053527;28;20424;-59
2022/01/19 06:34:07;;;;;;;39.73;26.10;;;;;;;;;;2063582;28;20177;-59
2022/01/19 06:35:40;;;;;;;35.97;24.87;;;;;;;;;;2054607;28;20174;-58
2022/01/19 06:36:59;;;;;;;38.43;25.00;;;;;;;;;;2062143;28;20410;-59
2022/01/19 06:38:10;;;;;;;43.43;26.97;;;;;;;;;;2061269;28;20222;-55
2022/01/19 06:39:24;;;;;;;41.20;27.47;;;;;;;;;;2054664;28;20237;-56
2022/01/19 06:40:36;;;;;;;41.13;28.00;;;;;;;;;;2056147;28;20447;-59
2022/01/19 06:41:36;;;;;;;45.20;29.00;;;;;;;;;;2059321;28;20249;-58
2022/01/19 06:42:37;;;;;;;39.60;27.90;;;;;;;;;;2055539;28;20193;-57
2022/01/19 06:43:37;;;;;;;39.77;29.13;;;;;;;;;;2052040;28;20640;-57
2022/01/19 06:44:38;;;;;;;43.80;27.87;;;;;;;;;;2053538;28;20302;-56
2022/01/19 06:45:38;;;;;;;44.83;28.50;;;;;;;;;;2059411;28;20685;-57
2022/01/19 06:46:39;;;;;;;43.33;29.73;;;;;;;;;;2054183;28;20182;-59
2022/01/19 06:47:40;;;;;;;40.70;28.43;;;;;;;;;;2061751;28;20206;-60
2022/01/19 06:48:40;;;;;;;45.87;30.47;;;;;;;;;;2061326;28;20598;-57
2022/01/19 06:49:42;;;;;;;45.70;30.67;;;;;;;;;;2053581;28;20173;-60
2022/01/19 06:50:44;;;;;;;46.13;29.43;;;;;;;;;;2053508;28;20217;-58
2022/01/19 06:51:45;;;;;;;43.30;30.63;;;;;;;;;;2060735;28;20280;-59
2022/01/19 06:52:45;;;;;;;44.80;29.93;;;;;;;;;;2056686;28;20171;-54
2022/01/19 06:53:46;;;;;;;44.00;30.83;;;;;;;;;;2054375;28;20179;-55
2022/01/19 06:54:52;;;;;;;44.77;31.57;;;;;;;;;;2054321;28;20727;-57
2022/01/19 06:55:57;;;;;;;45.60;30.70;;;;;;;;;;2060355;28;20173;-56
2022/01/19 06:56:57;;;;;;;40.20;31.33;;;;;;;;;;2063385;28;20761;-60
2022/01/19 06:58:01;;;;;;;45.60;31.93;;;;;;;;;;2061327;28;20173;-60
2022/01/19 06:59:20;;;;;;;44.60;29.30;;;;;;;;;;2063506;28;20689;-62
2022/01/19 07:00:34;;;;;;;45.07;29.73;;;;;;;;;;2061022;28;20225;-60
2022/01/19 07:01:40;;;;;;;44.00;31.23;;;;;;;;;;2053684;28;21034;-60
2022/01/19 07:02:47;;;;;;;50.23;32.67;;;;;;;;;;2054343;28;20179;-60
2022/01/19 07:04:14;;;;;;;48.20;29.53;;;;;;;;;;2061213;28;20562;-61
2022/01/19 07:05:15;;;;;;;47.70;34.90;;;;;;;;;;2063549;28;20193;-61
2022/01/19 07:06:16;;;;;;;49.43;34.97;;;;;;;;;;2060875;28;20423;-62
2022/01/19 07:07:32;;;;;;;58.07;36.90;;;;;;;;;;2061779;28;20172;-61
2022/01/19 07:08:35;;;;;;;51.53;35.90;;;;;;;;;;2053169;28;20581;-61
2022/01/19 07:09:35;;;;;;;54.33;36.87;;;;;;;;;;2054676;28;20410;-58
2022/01/19 07:10:36;;;;;;;51.90;35.27;;;;;;;;;;2054933;28;20185;-57
2022/01/19 07:11:37;;;;;;;54.23;36.33;;;;;;;;;;2055623;28;20182;-60
2022/01/19 07:12:37;;;;;;;51.93;36.53;;;;;;;;;;2052846;28;20230;-57
2022/01/19 07:13:38;;;;;;;53.30;34.00;;;;;;;;;;2060948;28;20181;-59
2022/01/19 07:14:39;;;;;;;52.90;35.77;;;;;;;;;;2061108;28;20454;-59
2022/01/19 07:15:40;;;;;;;54.50;38.07;;;;;;;;;;2071192;28;20188;-61
2022/01/19 07:16:41;;;;;;;52.93;36.67;;;;;;;;;;2061253;28;20173;-59
2022/01/19 07:17:42;;;;;;;57.07;39.03;;;;;;;;;;2051701;28;20223;-59
2022/01/19 07:18:43;;;;;;;53.67;34.33;;;;;;;;;;2047067;28;20183;-58
2022/01/19 07:19:43;;;;;;;52.60;35.00;;;;;;;;;;2053590;28;20643;-60
2022/01/19 07:20:44;;;;;;;51.13;33.67;;;;;;;;;;2060376;28;20277;-59
2022/01/19 07:21:45;;;;;;;42.83;30.37;;;;;;;;;;2060476;28;20412;-58
2022/01/19 07:22:46;;;;;;;41.07;29.17;;;;;;;;;;2061645;28;20638;-56
2022/01/19 07:23:46;;;;;;;42.73;31.87;;;;;;;;;;2060521;28;20284;-59